Time;durP1;ratioP1;P1;durP2;ratioP2;P2;SDS_P1;SDS_P2;PMS_P1;PMS_P2;Temp;Humidity;BMP_temperature;BMP_pressure;BME280_temperature;BME280_humidity;BME280_pressure;Samples;Min_cycle;Max_cycle;Signal;HPM_P1;HPM_P2
2023/06/18 00:01:00;;;;;;;20.30;8.90;;;;;;;20.97;56.18;101153.19;4986636;28;20038;-62
2023/06/18 00:03:26;;;;;;;20.38;8.93;;;;;;;20.97;58.66;101154.09;4988294;28;20030;-69
2023/06/18 00:05:54;;;;;;;19.98;9.00;;;;;;;20.89;59.29;101157.00;4986432;28;20044;-68
2023/06/18 00:08:23;;;;;;;20.05;8.70;;;;;;;20.92;59.52;101160.53;4987702;28;20027;-69
2023/06/18 00:10:48;;;;;;;19.40;8.50;;;;;;;20.86;60.73;101159.81;4986689;28;20030;-69
2023/06/18 00:13:14;;;;;;;19.92;8.82;;;;;;;20.77;62.29;101154.75;4985164;28;20102;-60
2023/06/18 00:15:40;;;;;;;20.65;8.60;;;;;;;20.76;62.21;101155.66;4987500;28;20034;-65
2023/06/18 00:18:05;;;;;;;21.15;8.60;;;;;;;20.65;63.31;101147.94;4987376;28;20477;-69
2023/06/18 00:20:32;;;;;;;19.42;8.95;;;;;;;20.55;64.59;101149.19;4986087;28;20070;-60
2023/06/18 00:22:58;;;;;;;19.23;8.73;;;;;;;20.50;64.68;101151.13;4988104;28;20057;-60
2023/06/18 00:25:23;;;;;;;20.38;8.35;;;;;;;20.49;63.76;101152.03;4986186;28;20054;-63
2023/06/18 00:27:49;;;;;;;19.42;8.93;;;;;;;20.53;63.09;101145.66;4988249;28;20054;-60
2023/06/18 00:30:14;;;;;;;21.30;8.90;;;;;;;20.44;64.46;101137.91;4984298;28;20073;-60
2023/06/18 00:32:43;;;;;;;19.85;8.82;;;;;;;20.27;64.14;101142.00;4987781;28;20031;-64
2023/06/18 00:35:10;;;;;;;20.30;9.02;;;;;;;20.24;64.96;101144.78;4985435;28;20031;-60
2023/06/18 00:37:36;;;;;;;20.25;8.77;;;;;;;20.32;64.95;101136.50;4987304;28;20516;-62
2023/06/18 00:40:01;;;;;;;20.77;9.48;;;;;;;20.28;63.68;101132.13;4988280;28;20236;-60
2023/06/18 00:42:28;;;;;;;20.00;8.55;;;;;;;20.33;64.76;101139.13;4986130;28;20102;-61
2023/06/18 00:44:54;;;;;;;20.25;8.73;;;;;;;20.23;66.03;101131.38;4986373;28;20114;-62
2023/06/18 00:47:20;;;;;;;20.13;8.93;;;;;;;20.14;65.71;101125.41;4986850;28;20030;-61
2023/06/18 00:49:47;;;;;;;20.80;9.10;;;;;;;20.15;62.97;101118.22;4987329;28;20068;-64
2023/06/18 00:52:13;;;;;;;20.10;8.93;;;;;;;20.15;64.50;101127.16;4986607;28;20058;-60
2023/06/18 00:54:44;;;;;;;19.67;8.90;;;;;;;19.84;67.29;101120.03;4983857;28;20397;-60
2023/06/18 00:57:13;;;;;;;19.40;9.10;;;;;;;19.70;68.73;101119.53;4987344;28;20030;-61
2023/06/18 00:59:42;;;;;;;19.63;9.15;;;;;;;19.44;72.01;101112.22;4985047;28;20037;-60
2023/06/18 01:02:07;;;;;;;19.70;8.70;;;;;;;19.36;73.23;101115.13;4988727;28;20022;-63
2023/06/18 01:04:33;;;;;;;20.17;9.20;;;;;;;19.31;72.99;101117.09;4986785;28;20446;-60
2023/06/18 01:07:01;;;;;;;20.48;9.20;;;;;;;19.23;75.66;101111.06;4984720;28;20026;-69
2023/06/18 01:09:28;;;;;;;20.15;9.52;;;;;;;19.24;75.07;101113.69;4987836;28;20023;-70
2023/06/18 01:11:54;;;;;;;20.52;9.85;;;;;;;19.24;76.12;101112.81;4984218;28;20490;-70
2023/06/18 01:14:21;;;;;;;21.27;9.57;;;;;;;19.29;77.62;101116.22;4990080;28;20038;-69
2023/06/18 01:16:51;;;;;;;22.02;9.77;;;;;;;19.37;76.42;101124.94;4980588;28;20030;-69
2023/06/18 01:19:40;;;;;;;20.48;9.88;;;;;;;19.45;74.69;101114.00;4980383;28;20027;-69
2023/06/18 01:22:30;;;;;;;20.95;10.00;;;;;;;19.39;74.24;101115.06;4984866;28;20470;-69
2023/06/18 01:24:58;;;;;;;20.65;9.80;;;;;;;19.46;73.81;101113.09;4981996;28;20027;-70
2023/06/18 01:27:27;;;;;;;20.00;9.88;;;;;;;19.31;76.56;101107.25;4986186;28;20449;-67
2023/06/18 01:29:54;;;;;;;20.25;10.32;;;;;;;19.26;77.21;101108.28;4985752;28;20031;-66
2023/06/18 01:32:21;;;;;;;21.10;10.50;;;;;;;19.16;77.83;101104.97;4986280;28;20034;-69
2023/06/18 01:34:47;;;;;;;22.33;10.50;;;;;;;19.09;78.14;101109.63;4983223;28;20066;-68
2023/06/18 01:37:31;;;;;;;22.98;10.90;;;;;;;18.96;80.64;101105.50;4986952;28;20026;-69
2023/06/18 01:40:15;;;;;;;22.38;11.40;;;;;;;18.91;80.28;101107.44;4986612;28;20417;-69
2023/06/18 01:42:49;;;;;;;22.73;10.90;;;;;;;18.90;80.18;101106.56;4982310;28;20035;-68
2023/06/18 01:45:30;;;;;;;20.45;10.95;;;;;;;18.95;80.68;101098.41;4985574;28;20470;-68
2023/06/18 01:48:02;;;;;;;20.60;10.38;;;;;;;18.89;81.79;101095.91;4986445;28;20113;-69
2023/06/18 01:50:29;;;;;;;21.08;10.65;;;;;;;18.88;82.25;101089.63;4986339;28;20110;-68
2023/06/18 01:52:57;;;;;;;21.67;11.20;;;;;;;18.73;82.92;101101.59;4983429;28;20027;-69
2023/06/18 01:55:25;;;;;;;21.33;11.23;;;;;;;18.59;84.22;101093.03;4979821;28;20042;-67
2023/06/18 01:57:51;;;;;;;20.98;11.00;;;;;;;18.45;89.33;101093.41;4986758;28;20031;-65
2023/06/18 02:00:17;;;;;;;22.05;10.90;;;;;;;18.29;91.31;101098.22;4983531;28;20023;-69
2023/06/18 02:02:42;;;;;;;22.75;11.52;;;;;;;18.26;89.88;101091.16;4986453;28;20065;-63
2023/06/18 02:05:08;;;;;;;21.42;11.40;;;;;;;18.16;92.90;101096.75;4983904;28;20023;-69
2023/06/18 02:07:33;;;;;;;21.48;11.25;;;;;;;18.17;91.99;101087.81;4985282;28;20038;-68
2023/06/18 02:09:59;;;;;;;21.85;11.25;;;;;;;18.23;90.55;101093.00;4985055;28;20120;-68
2023/06/18 02:12:24;;;;;;;21.15;11.38;;;;;;;18.24;92.03;101092.09;4983966;28;20029;-69
2023/06/18 02:14:50;;;;;;;26.50;11.55;;;;;;;18.26;90.23;101085.81;4985920;28;20497;-69
2023/06/18 02:17:15;;;;;;;22.15;11.02;;;;;;;18.17;91.06;101086.00;4983936;28;20023;-68
2023/06/18 02:19:40;;;;;;;23.48;11.95;;;;;;;17.94;92.62;101078.53;4986387;28;20037;-68
2023/06/18 02:22:06;;;;;;;21.45;11.52;;;;;;;17.84;93.53;101080.50;4983214;28;20054;-68
2023/06/18 02:24:32;;;;;;;21.77;11.88;;;;;;;17.77;94.42;101079.72;4985919;28;20041;-68
2023/06/18 02:26:58;;;;;;;23.25;11.98;;;;;;;17.65;96.05;101077.34;4985646;28;20050;-68
2023/06/18 02:29:23;;;;;;;22.23;12.00;;;;;;;17.67;96.84;101078.16;4983804;28;20481;-68
2023/06/18 02:31:48;;;;;;;22.90;12.15;;;;;;;17.68;97.84;101084.38;4984931;28;20034;-68
2023/06/18 02:34:15;;;;;;;21.85;11.77;;;;;;;17.67;97.76;101078.16;4984757;28;20791;-68
2023/06/18 02:36:40;;;;;;;22.73;12.18;;;;;;;17.72;97.37;101073.63;4983971;28;20027;-60
2023/06/18 02:39:06;;;;;;;21.80;11.98;;;;;;;17.63;97.69;101072.94;4986921;28;20037;-66
2023/06/18 02:41:31;;;;;;;21.80;11.95;;;;;;;17.59;97.91;101064.97;4983199;28;20030;-68
2023/06/18 02:43:56;;;;;;;22.08;12.07;;;;;;;17.49;99.52;101063.41;4986055;28;20496;-68
2023/06/18 02:46:22;;;;;;;23.17;13.02;;;;;;;17.40;97.77;101064.50;4982389;28;20594;-67
2023/06/18 02:48:47;;;;;;;23.50;12.80;;;;;;;17.32;98.14;101061.09;4983982;28;20034;-67
2023/06/18 02:51:13;;;;;;;23.17;12.35;;;;;;;17.35;100.00;101069.03;4982930;28;20377;-68
2023/06/18 02:53:38;;;;;;;23.25;12.70;;;;;;;17.37;99.29;101071.66;4985513;28;20105;-68
2023/06/18 02:56:03;;;;;;;22.75;12.73;;;;;;;17.37;99.18;101072.56;4982742;28;20536;-68
2023/06/18 02:58:29;;;;;;;22.98;13.07;;;;;;;17.46;99.42;101073.28;4983944;28;20490;-68
2023/06/18 03:00:55;;;;;;;22.40;12.90;;;;;;;17.46;98.45;101062.59;4984731;28;20485;-68
2023/06/18 03:03:21;;;;;;;23.75;13.27;;;;;;;17.51;97.05;101056.22;4985129;28;20493;-68
2023/06/18 03:05:47;;;;;;;22.50;12.98;;;;;;;17.47;97.72;101062.56;4983174;28;20046;-63
2023/06/18 03:08:13;;;;;;;23.52;13.18;;;;;;;17.38;99.85;101062.75;4985271;28;20030;-60
2023/06/18 03:10:38;;;;;;;22.83;12.85;;;;;;;17.23;100.00;101069.28;4982255;28;20467;-64
2023/06/18 03:13:04;;;;;;;23.65;12.93;;;;;;;17.19;100.00;101073.78;4985445;28;20034;-63
2023/06/18 03:15:29;;;;;;;23.17;13.30;;;;;;;17.25;100.00;101075.47;4982149;28;20034;-63
2023/06/18 03:17:54;;;;;;;21.77;12.73;;;;;;;17.23;100.00;101079.97;4985648;28;20073;-60
2023/06/18 03:20:20;;;;;;;23.67;12.70;;;;;;;17.23;100.00;101067.50;4982836;28;20034;-60
2023/06/18 03:22:45;;;;;;;23.15;13.73;;;;;;;17.22;100.00;101065.72;4983979;28;20042;-60
2023/06/18 03:25:11;;;;;;;23.92;13.35;;;;;;;17.20;100.00;101061.34;4984166;28;20385;-63
2023/06/18 03:27:36;;;;;;;23.98;13.73;;;;;;;17.10;100.00;101070.44;4984309;28;20124;-63
2023/06/18 03:30:04;;;;;;;23.05;13.55;;;;;;;17.01;100.00;101075.03;4983080;28;20039;-63
2023/06/18 03:32:29;;;;;;;24.60;13.88;;;;;;;17.04;100.00;101074.97;4985006;28;20027;-63
2023/06/18 03:34:55;;;;;;;24.00;13.90;;;;;;;17.00;100.00;101075.94;4981746;28;20501;-60
2023/06/18 03:37:20;;;;;;;24.30;13.80;;;;;;;17.02;100.00;101073.25;4985616;28;20058;-64
2023/06/18 03:39:45;;;;;;;24.73;14.05;;;;;;;17.05;100.00;101076.75;4981552;28;20038;-60
2023/06/18 03:42:11;;;;;;;24.60;14.38;;;;;;;16.96;100.00;101076.91;4984730;28;20034;-60
2023/06/18 03:44:37;;;;;;;24.70;13.25;;;;;;;16.92;100.00;101072.56;4982818;28;20037;-60
2023/06/18 03:47:02;;;;;;;24.52;13.73;;;;;;;16.96;100.00;101076.91;4983363;28;20047;-62
2023/06/18 03:49:27;;;;;;;26.02;13.25;;;;;;;16.92;100.00;101075.22;4983806;28;20501;-60
2023/06/18 03:51:53;;;;;;;23.70;13.93;;;;;;;16.91;100.00;101076.13;4982453;28;20066;-63
2023/06/18 03:54:18;;;;;;;26.35;14.10;;;;;;;16.96;100.00;101079.56;4984328;28;20097;-61
2023/06/18 03:56:44;;;;;;;24.10;14.07;;;;;;;16.95;100.00;101085.84;4981510;28;20046;-61
2023/06/18 03:59:09;;;;;;;25.58;14.20;;;;;;;17.03;100.00;101088.34;4977919;28;20034;-60
2023/06/18 04:01:35;;;;;;;24.65;14.95;;;;;;;17.04;100.00;101088.34;4984426;28;20089;-64
2023/06/18 04:04:02;;;;;;;23.67;13.60;;;;;;;17.15;100.00;101087.25;4984480;28;20426;-69
2023/06/18 04:06:27;;;;;;;23.83;13.80;;;;;;;17.21;100.00;101087.13;4984263;28;20206;-69
2023/06/18 04:08:53;;;;;;;25.35;15.25;;;;;;;17.19;100.00;101096.97;4983144;28;20034;-69
2023/06/18 04:11:18;;;;;;;25.15;14.60;;;;;;;17.26;100.00;101093.28;4982694;28;20019;-69
2023/06/18 04:13:44;;;;;;;25.27;15.82;;;;;;;17.29;100.00;101087.88;4984375;28;20034;-69
2023/06/18 04:16:10;;;;;;;24.40;15.40;;;;;;;17.20;100.00;101096.06;4982527;28;20111;-69
2023/06/18 04:18:35;;;;;;;24.25;15.18;;;;;;;17.25;100.00;101091.50;4984852;28;20058;-68
2023/06/18 04:21:00;;;;;;;25.80;15.23;;;;;;;17.18;100.00;101095.19;4981540;28;20077;-69
2023/06/18 04:23:27;;;;;;;25.73;15.93;;;;;;;17.15;100.00;101095.25;4984640;28;20115;-69
2023/06/18 04:25:53;;;;;;;26.33;15.55;;;;;;;17.18;100.00;101089.84;4981873;28;20122;-69
2023/06/18 04:28:20;;;;;;;24.60;15.32;;;;;;;17.20;100.00;101088.06;4986824;28;20114;-69
2023/06/18 04:30:45;;;;;;;25.67;15.00;;;;;;;17.30;100.00;101092.31;4987585;28;20094;-68
2023/06/18 04:33:10;;;;;;;24.55;16.20;;;;;;;17.22;100.00;101096.91;4986548;28;20038;-69
2023/06/18 04:35:36;;;;;;;25.20;16.55;;;;;;;17.20;100.00;101088.06;4986328;28;20502;-69
2023/06/18 04:38:01;;;;;;;26.17;17.23;;;;;;;17.22;100.00;101084.41;4987435;28;20053;-69
2023/06/18 04:40:26;;;;;;;25.50;18.35;;;;;;;17.33;100.00;101086.91;4986257;28;20039;-69
2023/06/18 04:42:52;;;;;;;27.00;18.17;;;;;;;17.35;100.00;101086.88;4987276;28;20497;-69
2023/06/18 04:45:17;;;;;;;27.33;18.60;;;;;;;17.38;100.00;101084.13;4984913;28;20039;-68
2023/06/18 04:47:42;;;;;;;28.75;19.27;;;;;;;17.48;100.00;101083.03;4988170;28;20058;-68
2023/06/18 04:50:08;;;;;;;27.58;19.20;;;;;;;17.50;100.00;101083.00;4985174;28;20035;-65
2023/06/18 04:52:34;;;;;;;26.40;18.52;;;;;;;17.54;100.00;101090.03;4986820;28;20045;-68
2023/06/18 04:54:59;;;;;;;28.45;19.80;;;;;;;17.54;100.00;101087.38;4985674;28;20473;-68
2023/06/18 04:57:27;;;;;;;28.58;20.65;;;;;;;17.56;100.00;101083.75;4986476;28;20382;-68
2023/06/18 04:59:52;;;;;;;28.85;21.15;;;;;;;17.60;100.00;101092.56;4986415;28;20046;-68
2023/06/18 05:02:18;;;;;;;27.85;21.13;;;;;;;17.64;100.00;101088.06;4985405;28;20026;-68
2023/06/18 05:04:43;;;;;;;27.73;20.38;;;;;;;17.77;100.00;101090.44;4987231;28;20030;-67
2023/06/18 05:07:09;;;;;;;27.98;21.17;;;;;;;17.88;100.00;101094.66;4987536;28;20037;-68
2023/06/18 05:09:34;;;;;;;31.30;22.17;;;;;;;17.92;100.00;101088.38;4984200;28;20030;-68
2023/06/18 05:12:00;;;;;;;28.90;21.80;;;;;;;18.01;100.00;101092.63;4987503;28;20062;-68
2023/06/18 05:14:26;;;;;;;31.80;22.00;;;;;;;18.11;100.00;101103.09;4985312;28;20081;-62
2023/06/18 05:16:51;;;;;;;28.88;20.77;;;;;;;18.25;100.00;101097.41;4985816;28;20109;-68
2023/06/18 05:19:17;;;;;;;28.35;19.80;;;;;;;18.35;99.33;101103.44;4985242;28;20037;-68
2023/06/18 05:21:42;;;;;;;28.13;20.05;;;;;;;18.46;96.59;101101.38;4984585;28;20121;-68
2023/06/18 05:24:08;;;;;;;29.23;20.40;;;;;;;18.51;96.79;101098.59;4986576;28;20034;-68
2023/06/18 05:26:34;;;;;;;28.17;20.17;;;;;;;18.64;93.46;101094.69;4984075;28;20050;-67
2023/06/18 05:29:00;;;;;;;27.42;20.08;;;;;;;18.86;94.07;101101.28;4987202;28;20066;-68
2023/06/18 05:31:26;;;;;;;28.85;20.95;;;;;;;18.98;95.31;101101.88;4987048;28;20508;-68
2023/06/18 05:33:51;;;;;;;28.75;20.55;;;;;;;19.13;92.23;101103.28;4984106;28;20034;-68
2023/06/18 05:36:17;;;;;;;26.88;19.65;;;;;;;19.38;89.74;101107.06;4987054;28;20113;-68
2023/06/18 05:38:42;;;;;;;29.48;20.60;;;;;;;19.47;87.75;101101.41;4984329;28;20117;-65
2023/06/18 05:41:07;;;;;;;28.55;20.17;;;;;;;19.58;85.42;101107.38;4987177;28;20042;-68
2023/06/18 05:43:32;;;;;;;28.70;20.17;;;;;;;19.79;82.56;101108.59;4985186;28;20506;-66
2023/06/18 05:45:58;;;;;;;26.45;19.08;;;;;;;20.01;79.02;101107.94;4985332;28;20452;-61
2023/06/18 05:48:24;;;;;;;27.50;18.63;;;;;;;20.18;75.11;101108.28;4986363;28;20034;-64
2023/06/18 05:50:50;;;;;;;28.17;19.25;;;;;;;20.34;76.20;101110.47;4983824;28;20023;-60
2023/06/18 05:53:15;;;;;;;27.90;18.15;;;;;;;20.44;74.02;101106.53;4987136;28;20026;-64
2023/06/18 05:55:40;;;;;;;26.60;17.88;;;;;;;20.58;72.83;101113.28;4987352;28;20066;-64
2023/06/18 05:58:06;;;;;;;29.58;17.67;;;;;;;20.70;70.86;101108.41;4984047;28;20035;-64
2023/06/18 06:00:32;;;;;;;25.05;17.45;;;;;;;20.86;69.87;101114.13;4986125;28;20038;-63
2023/06/18 06:02:57;;;;;;;23.60;14.45;;;;;;;21.11;66.38;101113.28;4984657;28;20042;-64
2023/06/18 06:05:23;;;;;;;25.20;13.82;;;;;;;21.31;64.56;101114.38;4985053;28;20054;-63
2023/06/18 06:07:48;;;;;;;24.65;14.02;;;;;;;21.50;61.46;101115.47;4983763;28;20072;-60
2023/06/18 06:10:16;;;;;;;23.63;13.13;;;;;;;21.70;60.76;101108.50;4984290;28;20418;-64
2023/06/18 06:12:41;;;;;;;23.02;12.82;;;;;;;21.78;59.63;101114.44;4985748;28;20033;-64
2023/06/18 06:15:09;;;;;;;23.70;12.40;;;;;;;22.00;58.13;101110.94;4983142;28;20031;-62
2023/06/18 06:17:35;;;;;;;23.05;11.70;;;;;;;22.22;55.08;101119.03;4987120;28;20029;-60
2023/06/18 06:20:00;;;;;;;22.35;11.88;;;;;;;22.38;53.27;101124.69;4981508;28;20043;-68
2023/06/18 06:22:25;;;;;;;20.85;10.63;;;;;;;22.60;54.38;101124.69;4986142;28;20074;-68
2023/06/18 06:24:51;;;;;;;21.88;11.27;;;;;;;22.70;52.23;101130.56;4983734;28;20041;-69
2023/06/18 06:27:17;;;;;;;21.15;10.73;;;;;;;22.72;52.81;101128.72;4984569;28;20108;-69
2023/06/18 06:29:42;;;;;;;23.02;10.75;;;;;;;22.62;52.29;101133.59;4986064;28;20073;-66
2023/06/18 06:32:07;;;;;;;20.90;10.25;;;;;;;22.49;51.18;101127.84;4984695;28;20030;-68
2023/06/18 06:34:33;;;;;;;20.80;10.50;;;;;;;22.41;51.20;101135.34;4983717;28;20022;-68
2023/06/18 06:36:58;;;;;;;20.30;10.13;;;;;;;22.29;53.43;101158.22;4985580;28;20157;-69
2023/06/18 06:39:23;;;;;;;23.00;10.40;;;;;;;21.97;55.17;101179.19;4982917;28;20386;-69
2023/06/18 06:41:49;;;;;;;21.02;10.50;;;;;;;21.70;56.41;101182.00;4986902;28;20031;-69
2023/06/18 06:44:15;;;;;;;21.40;9.00;;;;;;;21.62;54.76;101177.84;4982795;28;20393;-69
2023/06/18 06:46:40;;;;;;;19.20;8.88;;;;;;;21.64;53.97;101181.34;4985309;28;20177;-67
2023/06/18 06:49:07;;;;;;;19.58;8.35;;;;;;;21.73;53.09;101173.81;4983113;28;20039;-68
2023/06/18 06:51:33;;;;;;;20.73;8.70;;;;;;;21.81;53.75;101173.50;4984031;28;20050;-65
2023/06/18 06:53:59;;;;;;;19.85;8.35;;;;;;;21.83;51.88;101176.16;4984067;28;20482;-68
2023/06/18 06:56:24;;;;;;;20.58;9.20;;;;;;;21.91;52.77;101180.31;4983813;28;20042;-67
2023/06/18 06:58:50;;;;;;;21.80;8.98;;;;;;;22.02;51.63;101177.22;4984999;28;20031;-64
2023/06/18 07:01:16;;;;;;;20.40;8.90;;;;;;;22.10;50.82;101169.72;4982716;28;20027;-67
2023/06/18 07:03:41;;;;;;;20.05;8.77;;;;;;;22.23;51.00;101178.19;4985629;28;20042;-68
2023/06/18 07:06:06;;;;;;;19.73;9.02;;;;;;;22.50;50.09;101178.09;4985076;28;20026;-63
2023/06/18 07:08:32;;;;;;;20.67;9.30;;;;;;;22.47;48.61;101178.22;4982231;28;20039;-68
2023/06/18 07:10:57;;;;;;;19.58;9.35;;;;;;;22.44;49.04;101173.81;4985049;28;20057;-68
2023/06/18 07:13:23;;;;;;;21.65;10.50;;;;;;;22.35;48.14;101179.56;4983269;28;20461;-68
2023/06/18 07:15:48;;;;;;;20.05;9.52;;;;;;;22.27;48.99;101177.13;4983695;28;20035;-67
2023/06/18 07:18:14;;;;;;;20.85;9.63;;;;;;;22.19;50.57;101175.69;4985044;28;20019;-67
2023/06/18 07:20:39;;;;;;;21.70;10.10;;;;;;;22.34;49.56;101176.91;4983321;28;20398;-68
2023/06/18 07:23:04;;;;;;;19.92;9.30;;;;;;;22.45;49.44;101185.47;4984698;28;20037;-68
2023/06/18 07:25:30;;;;;;;20.08;9.80;;;;;;;22.41;50.13;101183.81;4982000;28;20027;-68
2023/06/18 07:27:55;;;;;;;21.67;10.25;;;;;;;22.42;50.14;101185.59;4985060;28;20046;-65
2023/06/18 07:30:20;;;;;;;21.55;9.65;;;;;;;22.41;51.45;101184.72;4985399;28;20042;-68
2023/06/18 07:32:47;;;;;;;21.42;10.00;;;;;;;22.52;52.35;101181.56;4982014;28;20098;-68
2023/06/18 07:35:12;;;;;;;21.48;10.85;;;;;;;22.72;51.01;101170.00;4984311;28;20649;-69
2023/06/18 07:37:37;;;;;;;23.38;11.10;;;;;;;22.73;50.24;101173.56;4983412;28;20030;-68
2023/06/18 07:40:03;;;;;;;22.40;10.88;;;;;;;22.91;51.08;101174.63;4983258;28;20109;-68
2023/06/18 07:42:28;;;;;;;21.35;10.82;;;;;;;23.03;51.38;101173.22;4985645;28;20023;-68
2023/06/18 07:44:54;;;;;;;21.40;11.82;;;;;;;23.13;51.27;101175.47;4982611;28;20389;-62
2023/06/18 07:47:19;;;;;;;21.83;11.40;;;;;;;23.29;50.75;101167.59;4984832;28;20030;-61
2023/06/18 07:49:44;;;;;;;21.65;11.40;;;;;;;23.36;50.94;101168.22;4981938;28;20034;-62
2023/06/18 07:52:10;;;;;;;21.25;11.07;;;;;;;23.37;50.75;101178.03;4985002;28;20023;-63
2023/06/18 07:54:36;;;;;;;21.33;10.90;;;;;;;23.59;51.26;101167.19;4982085;28;20442;-61
2023/06/18 07:57:02;;;;;;;21.00;10.70;;;;;;;23.72;50.38;101170.22;4984430;28;20054;-63
2023/06/18 07:59:27;;;;;;;22.00;11.25;;;;;;;23.87;51.18;101163.25;4982933;28;20069;-64
2023/06/18 08:01:52;;;;;;;22.67;10.80;;;;;;;23.85;50.60;101165.09;4985244;28;20035;-61
2023/06/18 08:04:18;;;;;;;21.27;10.70;;;;;;;23.79;50.13;101174.34;4987783;28;20019;-63
2023/06/18 08:06:46;;;;;;;20.67;9.77;;;;;;;23.89;51.08;101160.50;4984524;28;20477;-60
2023/06/18 08:09:11;;;;;;;21.88;10.32;;;;;;;24.12;50.44;101171.06;4986904;28;20027;-62
2023/06/18 08:11:36;;;;;;;21.63;10.57;;;;;;;24.48;49.76;101167.56;4988072;28;20363;-62
2023/06/18 08:14:03;;;;;;;21.13;10.23;;;;;;;24.71;49.06;101168.28;4985727;28;20497;-60
2023/06/18 08:16:28;;;;;;;22.13;10.93;;;;;;;24.73;48.00;101162.78;4988747;28;20100;-62
2023/06/18 08:18:54;;;;;;;21.02;9.88;;;;;;;24.75;48.81;101169.88;4985463;28;20489;-61
2023/06/18 08:21:19;;;;;;;21.27;9.98;;;;;;;24.86;48.32;101155.84;4988898;28;20034;-61
2023/06/18 08:23:44;;;;;;;21.05;9.68;;;;;;;25.10;48.63;101159.09;4985728;28;20470;-61
2023/06/18 08:26:10;;;;;;;20.85;9.90;;;;;;;25.04;48.13;101162.13;4986894;28;20035;-61
2023/06/18 08:28:35;;;;;;;20.48;9.30;;;;;;;24.84;49.79;101155.91;4987152;28;20066;-69
2023/06/18 08:31:01;;;;;;;19.80;9.45;;;;;;;24.80;48.96;101159.72;4984984;28;20125;-70
2023/06/18 08:33:26;;;;;;;21.13;9.43;;;;;;;24.74;48.58;101153.72;4986440;28;20027;-62
2023/06/18 08:35:51;;;;;;;20.35;9.88;;;;;;;24.68;49.71;101150.41;4987641;28;20030;-70
2023/06/18 08:38:17;;;;;;;20.63;9.30;;;;;;;24.61;50.89;101143.56;4985079;28;20033;-70
2023/06/18 08:41:02;;;;;;;20.05;9.25;;;;;;;24.53;50.36;101149.28;4988333;28;20071;-69
2023/06/18 08:43:32;;;;;;;20.13;9.40;;;;;;;24.41;51.65;101158.00;4988130;28;20125;-70
2023/06/18 08:46:04;;;;;;;22.20;9.80;;;;;;;24.26;49.98;101151.53;4985621;28;20081;-69
2023/06/18 08:48:32;;;;;;;20.90;9.85;;;;;;;24.17;51.62;101146.56;4987757;28;20034;-69
2023/06/18 08:51:04;;;;;;;19.85;9.60;;;;;;;24.02;52.50;101157.13;4985366;28;20170;-66
2023/06/18 08:53:44;;;;;;;21.38;10.00;;;;;;;23.96;52.66;101153.88;4987542;28;20042;-69
2023/06/18 08:56:09;;;;;;;21.27;9.90;;;;;;;23.93;52.64;101146.78;4983293;28;20027;-68
2023/06/18 08:58:41;;;;;;;20.75;10.02;;;;;;;23.97;53.58;101148.38;4987539;28;20474;-65
2023/06/18 09:01:07;;;;;;;21.10;9.80;;;;;;;23.92;53.90;101145.00;4984708;28;20022;-71
2023/06/18 09:03:32;;;;;;;20.08;10.13;;;;;;;24.08;53.38;101152.41;4988282;28;20437;-68
2023/06/18 09:05:58;;;;;;;20.33;9.50;;;;;;;24.12;53.29;101156.72;4981223;28;20089;-68
2023/06/18 09:08:24;;;;;;;20.10;9.60;;;;;;;24.17;54.11;101154.66;4984216;28;20026;-68
2023/06/18 09:10:54;;;;;;;20.58;9.75;;;;;;;24.34;53.32;101162.81;4986397;28;20034;-70
2023/06/18 09:13:19;;;;;;;21.90;10.52;;;;;;;24.42;52.64;101153.47;4979675;28;20037;-68
2023/06/18 09:15:45;;;;;;;20.60;9.85;;;;;;;24.52;53.02;101161.06;4969422;28;20121;-69
2023/06/18 09:18:10;;;;;;;23.13;10.07;;;;;;;24.75;52.19;101161.75;4988023;28;20042;-69
2023/06/18 09:20:37;;;;;;;20.00;9.82;;;;;;;24.97;52.15;101156.13;4985123;28;20068;-68
2023/06/18 09:23:07;;;;;;;20.17;9.57;;;;;;;25.11;51.21;101165.41;4986028;28;20035;-65
2023/06/18 09:25:33;;;;;;;21.02;9.95;;;;;;;25.15;50.37;101169.66;4985370;28;20105;-69
2023/06/18 09:27:58;;;;;;;19.80;9.48;;;;;;;25.11;51.91;101162.69;4985130;28;20043;-68
2023/06/18 09:30:23;;;;;;;22.08;9.60;;;;;;;25.18;54.43;101158.72;4985962;28;20022;-65
2023/06/18 09:32:49;;;;;;;21.58;9.73;;;;;;;25.22;53.03;101160.28;4985512;28;20054;-69
2023/06/18 09:35:16;;;;;;;20.23;9.70;;;;;;;25.16;53.14;101166.00;4986329;28;20431;-69
2023/06/18 09:37:42;;;;;;;20.45;9.57;;;;;;;25.12;53.40;101159.00;4984793;28;20421;-68
2023/06/18 09:40:14;;;;;;;22.58;10.30;;;;;;;25.03;53.28;101160.34;4987265;28;20038;-68
2023/06/18 09:42:39;;;;;;;21.48;9.90;;;;;;;24.99;53.67;101165.06;4984567;28;20102;-70
2023/06/18 09:45:06;;;;;;;21.70;9.65;;;;;;;24.86;51.45;101162.09;4986635;28;20174;-68
2023/06/18 09:47:32;;;;;;;23.40;9.93;;;;;;;24.72;54.33;101161.91;4983644;28;20030;-65
2023/06/18 09:49:58;;;;;;;19.80;9.45;;;;;;;24.32;54.01;101155.75;4986806;28;20034;-69
2023/06/18 09:52:24;;;;;;;20.92;9.80;;;;;;;23.78;62.72;101158.25;4983873;28;20134;-69
2023/06/18 09:54:49;;;;;;;20.35;9.90;;;;;;;23.67;58.43;101153.34;4985296;28;20062;-70
2023/06/18 09:57:16;;;;;;;21.67;10.23;;;;;;;23.60;66.88;101154.56;4986197;28;20026;-68
2023/06/18 12:49:37;;;;;;;20.52;9.73;;;;;;;28.66;46.85;101003.22;5131094;27;20401;-65
2023/06/18 12:52:14;;;;;;;20.48;9.82;;;;;;;28.75;47.24;100999.84;5115477;28;20551;-68
2023/06/18 12:54:39;;;;;;;19.63;9.65;;;;;;;28.74;46.09;101006.25;5117069;28;20490;-68
2023/06/18 12:57:05;;;;;;;18.65;8.60;;;;;;;28.42;45.80;100998.44;5121927;28;20047;-62
2023/06/18 12:59:31;;;;;;;17.90;7.97;;;;;;;28.44;46.16;100999.22;5119019;28;20028;-68
2023/06/18 13:01:56;;;;;;;18.20;8.50;;;;;;;28.32;45.77;101002.75;5121994;28;20381;-67
2023/06/18 13:04:22;;;;;;;19.50;8.75;;;;;;;28.38;46.01;101001.47;5119374;28;20033;-60
2023/06/18 13:06:50;;;;;;;20.75;9.00;;;;;;;28.43;45.86;101002.06;5120813;28;20402;-65
2023/06/18 13:09:15;;;;;;;19.88;9.80;;;;;;;28.33;46.55;101004.50;5120109;28;20031;-62
2023/06/18 13:11:41;;;;;;;21.20;10.18;;;;;;;28.26;47.83;101003.19;5119338;28;20024;-68
2023/06/18 13:14:06;;;;;;;21.02;9.73;;;;;;;28.28;46.81;101003.94;5121800;28;20533;-69
2023/06/18 13:16:33;;;;;;;22.98;10.30;;;;;;;28.15;47.11;100998.50;5118437;28;20363;-67
2023/06/18 13:18:58;;;;;;;21.30;10.35;;;;;;;28.01;47.32;100993.97;5113995;28;20032;-62
2023/06/18 13:21:23;;;;;;;19.40;9.23;;;;;;;27.90;47.37;100994.66;5121357;28;20534;-68
2023/06/18 13:23:49;;;;;;;19.85;9.50;;;;;;;27.65;47.55;100993.56;5119585;28;20023;-68
2023/06/18 13:26:17;;;;;;;19.77;9.63;;;;;;;27.33;48.38;100990.16;5119762;28;20032;-66
2023/06/18 13:28:43;;;;;;;20.48;9.75;;;;;;;26.93;48.81;100981.84;5120298;28;20034;-66
2023/06/18 13:31:08;;;;;;;19.25;9.27;;;;;;;26.81;50.36;100983.50;5118807;28;20032;-68
2023/06/18 13:33:34;;;;;;;19.08;9.30;;;;;;;26.81;49.80;100980.78;5118080;28;20024;-69
2023/06/18 13:36:00;;;;;;;20.15;9.55;;;;;;;27.05;49.84;100972.06;5121502;28;20027;-65
2023/06/18 13:38:25;;;;;;;21.40;9.80;;;;;;;27.18;49.93;100972.16;5117773;28;20020;-65
2023/06/18 13:40:51;;;;;;;19.77;9.88;;;;;;;27.26;49.60;100977.97;5120952;28;20500;-68
2023/06/18 13:43:16;;;;;;;21.40;9.93;;;;;;;27.39;49.64;100976.25;5118930;28;20035;-67
2023/06/18 13:45:42;;;;;;;19.40;9.27;;;;;;;27.46;48.65;100974.91;5119716;28;20157;-68
2023/06/18 13:48:08;;;;;;;20.45;9.25;;;;;;;27.56;47.76;100971.56;5119687;28;20078;-66
2023/06/18 13:50:34;;;;;;;19.52;9.10;;;;;;;27.36;47.84;100965.56;5104319;28;20107;-68
2023/06/18 13:53:00;;;;;;;21.05;9.48;;;;;;;27.41;48.76;100955.31;5107356;28;20023;-61
2023/06/18 13:55:25;;;;;;;19.95;9.05;;;;;;;27.18;49.63;100955.91;5104190;28;20101;-68
2023/06/18 13:57:51;;;;;;;20.13;9.20;;;;;;;27.16;48.04;100949.69;5107298;28;20042;-69